sensor_id;sensor_type;location;lat;lon;timestamp;P1;durP1;ratioP1;P2;durP2;ratioP2
59728;SDS011;45588;51.598;5.618;2023-07-16T00:01:14;6.20;;;2.20;;
59728;SDS011;45588;51.598;5.618;2023-07-16T00:03:40;5.60;;;2.60;;
59728;SDS011;45588;51.598;5.618;2023-07-16T00:06:05;7.67;;;2.73;;
59728;SDS011;45588;51.598;5.618;2023-07-16T00:08:30;7.17;;;2.50;;
59728;SDS011;45588;51.598;5.618;2023-07-16T00:10:55;7.20;;;3.53;;
59728;SDS011;45588;51.598;5.618;2023-07-16T00:13:20;7.63;;;2.30;;
59728;SDS011;45588;51.598;5.618;2023-07-16T00:15:45;12.37;;;2.90;;
59728;SDS011;45588;51.598;5.618;2023-07-16T00:18:11;4.20;;;2.17;;
59728;SDS011;45588;51.598;5.618;2023-07-16T00:20:36;7.27;;;3.90;;
59728;SDS011;45588;51.598;5.618;2023-07-16T00:23:01;8.13;;;3.90;;
59728;SDS011;45588;51.598;5.618;2023-07-16T00:25:26;6.43;;;2.40;;
59728;SDS011;45588;51.598;5.618;2023-07-16T00:27:51;7.77;;;2.60;;
59728;SDS011;45588;51.598;5.618;2023-07-16T00:30:17;5.20;;;2.27;;
59728;SDS011;45588;51.598;5.618;2023-07-16T00:32:42;4.25;;;2.30;;
59728;SDS011;45588;51.598;5.618;2023-07-16T00:35:07;2.47;;;1.97;;
59728;SDS011;45588;51.598;5.618;2023-07-16T00:37:33;4.45;;;1.80;;
59728;SDS011;45588;51.598;5.618;2023-07-16T00:39:59;4.30;;;2.00;;
59728;SDS011;45588;51.598;5.618;2023-07-16T00:42:24;7.97;;;2.67;;
59728;SDS011;45588;51.598;5.618;2023-07-16T00:44:49;7.75;;;2.95;;
59728;SDS011;45588;51.598;5.618;2023-07-16T00:47:14;4.77;;;1.90;;
59728;SDS011;45588;51.598;5.618;2023-07-16T00:49:39;4.10;;;2.67;;
59728;SDS011;45588;51.598;5.618;2023-07-16T00:52:05;4.20;;;2.28;;
59728;SDS011;45588;51.598;5.618;2023-07-16T00:54:32;4.43;;;2.75;;
59728;SDS011;45588;51.598;5.618;2023-07-16T00:56:57;8.05;;;3.15;;
59728;SDS011;45588;51.598;5.618;2023-07-16T00:59:23;4.45;;;2.65;;
59728;SDS011;45588;51.598;5.618;2023-07-16T01:01:48;7.25;;;3.10;;
59728;SDS011;45588;51.598;5.618;2023-07-16T01:04:13;5.03;;;2.70;;
59728;SDS011;45588;51.598;5.618;2023-07-16T01:06:43;5.85;;;3.10;;
59728;SDS011;45588;51.598;5.618;2023-07-16T01:09:16;5.00;;;2.78;;
59728;SDS011;45588;51.598;5.618;2023-07-16T01:11:42;6.30;;;2.90;;
59728;SDS011;45588;51.598;5.618;2023-07-16T01:14:08;3.50;;;2.47;;
59728;SDS011;45588;51.598;5.618;2023-07-16T01:16:33;6.03;;;2.88;;
59728;SDS011;45588;51.598;5.618;2023-07-16T01:18:58;9.60;;;5.13;;
59728;SDS011;45588;51.598;5.618;2023-07-16T01:21:24;5.45;;;3.22;;
59728;SDS011;45588;51.598;5.618;2023-07-16T01:24:13;6.28;;;3.00;;
59728;SDS011;45588;51.598;5.618;2023-07-16T01:31:54;8.35;;;4.45;;
59728;SDS011;45588;51.598;5.618;2023-07-16T01:34:19;5.53;;;2.97;;
59728;SDS011;45588;51.598;5.618;2023-07-16T01:36:45;6.55;;;3.47;;
59728;SDS011;45588;51.598;5.618;2023-07-16T01:39:11;5.70;;;3.10;;
59728;SDS011;45588;51.598;5.618;2023-07-16T01:41:36;6.30;;;3.58;;
59728;SDS011;45588;51.598;5.618;2023-07-16T01:44:01;6.18;;;2.90;;
59728;SDS011;45588;51.598;5.618;2023-07-16T01:46:27;7.47;;;3.58;;
59728;SDS011;45588;51.598;5.618;2023-07-16T01:48:52;6.60;;;3.22;;
59728;SDS011;45588;51.598;5.618;2023-07-16T01:51:17;5.80;;;3.30;;
59728;SDS011;45588;51.598;5.618;2023-07-16T01:53:45;8.43;;;4.03;;
59728;SDS011;45588;51.598;5.618;2023-07-16T01:56:10;7.97;;;3.40;;
59728;SDS011;45588;51.598;5.618;2023-07-16T01:58:35;10.40;;;4.53;;
59728;SDS011;45588;51.598;5.618;2023-07-16T02:01:00;5.57;;;3.10;;
59728;SDS011;45588;51.598;5.618;2023-07-16T02:03:25;7.40;;;5.60;;
59728;SDS011;45588;51.598;5.618;2023-07-16T02:05:50;3.95;;;2.92;;
59728;SDS011;45588;51.598;5.618;2023-07-16T02:08:16;10.02;;;3.40;;
59728;SDS011;45588;51.598;5.618;2023-07-16T02:10:42;7.97;;;3.60;;
59728;SDS011;45588;51.598;5.618;2023-07-16T02:13:07;8.40;;;4.00;;
59728;SDS011;45588;51.598;5.618;2023-07-16T02:15:32;5.80;;;3.70;;
59728;SDS011;45588;51.598;5.618;2023-07-16T02:17:57;9.93;;;3.03;;
59728;SDS011;45588;51.598;5.618;2023-07-16T02:20:22;3.83;;;2.83;;
59728;SDS011;45588;51.598;5.618;2023-07-16T02:22:48;4.97;;;2.85;;
59728;SDS011;45588;51.598;5.618;2023-07-16T02:25:13;9.40;;;4.15;;
59728;SDS011;45588;51.598;5.618;2023-07-16T02:27:38;12.07;;;4.22;;
59728;SDS011;45588;51.598;5.618;2023-07-16T02:30:03;6.40;;;2.90;;
59728;SDS011;45588;51.598;5.618;2023-07-16T02:32:30;5.93;;;2.55;;
59728;SDS011;45588;51.598;5.618;2023-07-16T02:34:55;5.20;;;2.80;;
59728;SDS011;45588;51.598;5.618;2023-07-16T02:37:21;6.82;;;2.90;;
59728;SDS011;45588;51.598;5.618;2023-07-16T02:39:46;10.23;;;3.10;;
59728;SDS011;45588;51.598;5.618;2023-07-16T02:42:12;5.75;;;3.17;;
59728;SDS011;45588;51.598;5.618;2023-07-16T02:44:38;7.25;;;3.22;;
59728;SDS011;45588;51.598;5.618;2023-07-16T02:47:07;6.47;;;4.07;;
59728;SDS011;45588;51.598;5.618;2023-07-16T02:49:32;9.45;;;4.95;;
59728;SDS011;45588;51.598;5.618;2023-07-16T02:51:57;5.33;;;3.33;;
59728;SDS011;45588;51.598;5.618;2023-07-16T02:54:22;5.03;;;2.97;;
59728;SDS011;45588;51.598;5.618;2023-07-16T02:56:47;8.10;;;3.17;;
59728;SDS011;45588;51.598;5.618;2023-07-16T02:59:12;7.43;;;3.30;;
59728;SDS011;45588;51.598;5.618;2023-07-16T03:01:38;7.28;;;2.88;;
59728;SDS011;45588;51.598;5.618;2023-07-16T03:04:03;5.23;;;2.83;;
59728;SDS011;45588;51.598;5.618;2023-07-16T03:06:28;4.90;;;2.50;;
59728;SDS011;45588;51.598;5.618;2023-07-16T03:08:53;4.47;;;3.27;;
59728;SDS011;45588;51.598;5.618;2023-07-16T03:11:19;6.20;;;2.75;;
59728;SDS011;45588;51.598;5.618;2023-07-16T03:13:44;8.27;;;2.87;;
59728;SDS011;45588;51.598;5.618;2023-07-16T03:16:09;6.13;;;2.87;;
59728;SDS011;45588;51.598;5.618;2023-07-16T03:18:34;8.07;;;3.22;;
59728;SDS011;45588;51.598;5.618;2023-07-16T03:20:59;4.87;;;2.60;;
59728;SDS011;45588;51.598;5.618;2023-07-16T03:23:25;6.72;;;2.75;;
59728;SDS011;45588;51.598;5.618;2023-07-16T03:25:50;5.10;;;2.70;;
59728;SDS011;45588;51.598;5.618;2023-07-16T03:28:16;4.30;;;3.15;;
59728;SDS011;45588;51.598;5.618;2023-07-16T03:30:48;5.05;;;3.03;;
59728;SDS011;45588;51.598;5.618;2023-07-16T03:33:13;12.73;;;3.50;;
59728;SDS011;45588;51.598;5.618;2023-07-16T03:35:39;16.17;;;4.43;;
59728;SDS011;45588;51.598;5.618;2023-07-16T03:38:04;11.20;;;4.10;;
59728;SDS011;45588;51.598;5.618;2023-07-16T03:40:29;8.97;;;3.87;;
59728;SDS011;45588;51.598;5.618;2023-07-16T03:42:54;7.90;;;3.67;;
59728;SDS011;45588;51.598;5.618;2023-07-16T03:45:20;10.75;;;5.47;;
59728;SDS011;45588;51.598;5.618;2023-07-16T03:47:45;7.53;;;3.53;;
59728;SDS011;45588;51.598;5.618;2023-07-16T03:50:10;4.47;;;2.83;;
59728;SDS011;45588;51.598;5.618;2023-07-16T03:52:35;15.75;;;4.00;;
59728;SDS011;45588;51.598;5.618;2023-07-16T03:55:01;7.85;;;4.05;;
59728;SDS011;45588;51.598;5.618;2023-07-16T03:57:30;8.82;;;3.38;;
59728;SDS011;45588;51.598;5.618;2023-07-16T03:59:55;10.48;;;3.42;;
59728;SDS011;45588;51.598;5.618;2023-07-16T04:02:20;8.73;;;3.77;;
59728;SDS011;45588;51.598;5.618;2023-07-16T04:04:45;9.67;;;3.50;;
59728;SDS011;45588;51.598;5.618;2023-07-16T04:07:11;7.38;;;3.13;;
59728;SDS011;45588;51.598;5.618;2023-07-16T04:09:37;9.20;;;3.10;;
59728;SDS011;45588;51.598;5.618;2023-07-16T04:12:02;8.85;;;3.30;;
59728;SDS011;45588;51.598;5.618;2023-07-16T04:14:27;12.32;;;4.47;;
59728;SDS011;45588;51.598;5.618;2023-07-16T04:16:53;11.30;;;4.32;;
59728;SDS011;45588;51.598;5.618;2023-07-16T04:19:18;3.58;;;2.40;;
59728;SDS011;45588;51.598;5.618;2023-07-16T04:21:43;8.77;;;4.73;;
59728;SDS011;45588;51.598;5.618;2023-07-16T04:24:08;8.00;;;4.70;;
59728;SDS011;45588;51.598;5.618;2023-07-16T04:26:33;10.25;;;3.45;;
59728;SDS011;45588;51.598;5.618;2023-07-16T04:28:59;11.70;;;3.88;;
59728;SDS011;45588;51.598;5.618;2023-07-16T04:31:24;4.35;;;2.50;;
59728;SDS011;45588;51.598;5.618;2023-07-16T04:33:49;7.95;;;2.83;;
59728;SDS011;45588;51.598;5.618;2023-07-16T04:36:15;7.20;;;4.32;;
59728;SDS011;45588;51.598;5.618;2023-07-16T04:38:40;5.88;;;3.22;;
59728;SDS011;45588;51.598;5.618;2023-07-16T04:41:05;11.07;;;4.37;;
59728;SDS011;45588;51.598;5.618;2023-07-16T04:43:30;9.40;;;4.13;;
59728;SDS011;45588;51.598;5.618;2023-07-16T04:45:55;7.03;;;4.05;;
59728;SDS011;45588;51.598;5.618;2023-07-16T04:48:21;9.73;;;5.03;;
59728;SDS011;45588;51.598;5.618;2023-07-16T04:50:46;9.88;;;5.60;;
59728;SDS011;45588;51.598;5.618;2023-07-16T04:53:11;6.87;;;4.50;;
59728;SDS011;45588;51.598;5.618;2023-07-16T04:55:37;6.90;;;3.67;;
59728;SDS011;45588;51.598;5.618;2023-07-16T04:58:02;7.68;;;3.10;;
59728;SDS011;45588;51.598;5.618;2023-07-16T05:00:27;9.37;;;5.83;;
59728;SDS011;45588;51.598;5.618;2023-07-16T05:02:52;10.40;;;5.57;;
59728;SDS011;45588;51.598;5.618;2023-07-16T05:05:18;8.53;;;5.47;;
59728;SDS011;45588;51.598;5.618;2023-07-16T05:07:43;6.60;;;3.50;;
59728;SDS011;45588;51.598;5.618;2023-07-16T05:10:08;6.97;;;3.00;;
59728;SDS011;45588;51.598;5.618;2023-07-16T05:12:34;12.75;;;6.15;;
59728;SDS011;45588;51.598;5.618;2023-07-16T05:14:59;12.47;;;6.27;;
59728;SDS011;45588;51.598;5.618;2023-07-16T05:17:24;11.87;;;6.20;;
59728;SDS011;45588;51.598;5.618;2023-07-16T05:19:49;10.60;;;5.97;;
59728;SDS011;45588;51.598;5.618;2023-07-16T05:22:14;14.20;;;7.20;;
59728;SDS011;45588;51.598;5.618;2023-07-16T05:24:40;11.18;;;4.35;;
59728;SDS011;45588;51.598;5.618;2023-07-16T05:27:05;8.55;;;4.25;;
59728;SDS011;45588;51.598;5.618;2023-07-16T05:29:30;9.00;;;3.70;;
59728;SDS011;45588;51.598;5.618;2023-07-16T05:31:55;9.25;;;4.22;;
59728;SDS011;45588;51.598;5.618;2023-07-16T05:34:21;10.37;;;4.03;;
59728;SDS011;45588;51.598;5.618;2023-07-16T05:36:46;18.40;;;7.10;;
59728;SDS011;45588;51.598;5.618;2023-07-16T05:39:11;17.23;;;7.82;;
59728;SDS011;45588;51.598;5.618;2023-07-16T05:41:39;11.90;;;7.75;;
59728;SDS011;45588;51.598;5.618;2023-07-16T05:44:06;19.17;;;8.73;;
59728;SDS011;45588;51.598;5.618;2023-07-16T05:46:31;11.17;;;4.53;;
59728;SDS011;45588;51.598;5.618;2023-07-16T05:48:56;10.23;;;4.73;;
59728;SDS011;45588;51.598;5.618;2023-07-16T05:51:21;9.33;;;5.07;;
59728;SDS011;45588;51.598;5.618;2023-07-16T05:53:46;15.20;;;7.68;;
59728;SDS011;45588;51.598;5.618;2023-07-16T05:56:12;10.13;;;4.53;;
59728;SDS011;45588;51.598;5.618;2023-07-16T05:58:37;8.80;;;4.53;;
59728;SDS011;45588;51.598;5.618;2023-07-16T06:01:02;16.87;;;8.67;;
59728;SDS011;45588;51.598;5.618;2023-07-16T06:03:27;14.77;;;7.27;;
59728;SDS011;45588;51.598;5.618;2023-07-16T06:05:52;14.07;;;8.27;;
59728;SDS011;45588;51.598;5.618;2023-07-16T06:08:18;11.43;;;7.78;;
59728;SDS011;45588;51.598;5.618;2023-07-16T06:10:43;12.67;;;4.90;;
59728;SDS011;45588;51.598;5.618;2023-07-16T06:13:09;12.32;;;5.13;;
59728;SDS011;45588;51.598;5.618;2023-07-16T06:15:34;14.27;;;8.52;;
59728;SDS011;45588;51.598;5.618;2023-07-16T06:17:59;8.25;;;4.45;;
59728;SDS011;45588;51.598;5.618;2023-07-16T06:20:24;12.93;;;4.87;;
59728;SDS011;45588;51.598;5.618;2023-07-16T06:22:49;16.10;;;9.03;;
59728;SDS011;45588;51.598;5.618;2023-07-16T06:25:15;17.53;;;8.57;;
59728;SDS011;45588;51.598;5.618;2023-07-16T06:27:40;15.20;;;8.63;;
59728;SDS011;45588;51.598;5.618;2023-07-16T06:30:05;15.77;;;8.40;;
59728;SDS011;45588;51.598;5.618;2023-07-16T06:32:31;14.77;;;7.80;;
59728;SDS011;45588;51.598;5.618;2023-07-16T06:34:56;16.63;;;8.15;;
59728;SDS011;45588;51.598;5.618;2023-07-16T06:37:21;10.27;;;4.10;;
59728;SDS011;45588;51.598;5.618;2023-07-16T06:39:48;13.23;;;7.88;;
59728;SDS011;45588;51.598;5.618;2023-07-16T06:42:14;21.05;;;8.80;;
59728;SDS011;45588;51.598;5.618;2023-07-16T06:44:39;12.57;;;7.25;;
59728;SDS011;45588;51.598;5.618;2023-07-16T06:47:04;8.90;;;4.65;;
59728;SDS011;45588;51.598;5.618;2023-07-16T06:49:29;16.93;;;8.77;;
59728;SDS011;45588;51.598;5.618;2023-07-16T06:51:55;14.13;;;7.82;;
59728;SDS011;45588;51.598;5.618;2023-07-16T06:54:20;15.67;;;8.20;;
59728;SDS011;45588;51.598;5.618;2023-07-16T06:56:46;12.57;;;7.83;;
59728;SDS011;45588;51.598;5.618;2023-07-16T06:59:11;15.93;;;7.93;;
59728;SDS011;45588;51.598;5.618;2023-07-16T07:01:36;18.33;;;5.10;;
59728;SDS011;45588;51.598;5.618;2023-07-16T07:04:01;11.50;;;4.82;;
59728;SDS011;45588;51.598;5.618;2023-07-16T07:06:26;17.23;;;9.23;;
59728;SDS011;45588;51.598;5.618;2023-07-16T07:08:52;15.13;;;9.30;;
59728;SDS011;45588;51.598;5.618;2023-07-16T07:11:17;17.60;;;8.75;;
59728;SDS011;45588;51.598;5.618;2023-07-16T07:13:42;16.70;;;9.53;;
59728;SDS011;45588;51.598;5.618;2023-07-16T07:16:08;14.93;;;9.13;;
59728;SDS011;45588;51.598;5.618;2023-07-16T07:18:33;15.95;;;8.93;;
59728;SDS011;45588;51.598;5.618;2023-07-16T07:20:58;16.93;;;8.77;;
59728;SDS011;45588;51.598;5.618;2023-07-16T07:23:23;16.90;;;9.27;;
59728;SDS011;45588;51.598;5.618;2023-07-16T07:25:49;16.92;;;6.72;;
59728;SDS011;45588;51.598;5.618;2023-07-16T07:28:15;18.52;;;9.63;;
59728;SDS011;45588;51.598;5.618;2023-07-16T07:30:40;17.47;;;9.13;;
59728;SDS011;45588;51.598;5.618;2023-07-16T07:33:05;14.83;;;9.37;;
59728;SDS011;45588;51.598;5.618;2023-07-16T07:35:31;16.00;;;10.37;;
59728;SDS011;45588;51.598;5.618;2023-07-16T07:37:56;15.52;;;9.55;;
59728;SDS011;45588;51.598;5.618;2023-07-16T07:40:21;18.20;;;9.40;;
59728;SDS011;45588;51.598;5.618;2023-07-16T07:42:46;13.10;;;8.70;;
59728;SDS011;45588;51.598;5.618;2023-07-16T07:45:12;13.50;;;9.07;;
59728;SDS011;45588;51.598;5.618;2023-07-16T07:47:37;15.87;;;9.10;;
59728;SDS011;45588;51.598;5.618;2023-07-16T07:50:02;12.47;;;5.47;;
59728;SDS011;45588;51.598;5.618;2023-07-16T07:52:27;19.63;;;9.10;;
59728;SDS011;45588;51.598;5.618;2023-07-16T07:54:53;14.10;;;5.90;;
59728;SDS011;45588;51.598;5.618;2023-07-16T07:57:19;12.17;;;5.23;;
59728;SDS011;45588;51.598;5.618;2023-07-16T07:59:44;16.50;;;9.15;;
59728;SDS011;45588;51.598;5.618;2023-07-16T08:02:10;16.27;;;10.13;;
59728;SDS011;45588;51.598;5.618;2023-07-16T08:04:35;17.23;;;10.02;;
59728;SDS011;45588;51.598;5.618;2023-07-16T08:07:00;13.90;;;9.07;;
59728;SDS011;45588;51.598;5.618;2023-07-16T08:09:26;15.20;;;9.63;;
59728;SDS011;45588;51.598;5.618;2023-07-16T08:11:51;17.35;;;8.90;;
59728;SDS011;45588;51.598;5.618;2023-07-16T08:14:16;15.20;;;9.13;;
59728;SDS011;45588;51.598;5.618;2023-07-16T08:16:41;17.73;;;9.40;;
59728;SDS011;45588;51.598;5.618;2023-07-16T08:19:06;15.07;;;9.63;;
59728;SDS011;45588;51.598;5.618;2023-07-16T08:21:32;15.43;;;8.57;;
59728;SDS011;45588;51.598;5.618;2023-07-16T08:23:57;16.88;;;8.95;;
59728;SDS011;45588;51.598;5.618;2023-07-16T08:26:22;14.43;;;9.27;;
59728;SDS011;45588;51.598;5.618;2023-07-16T08:28:47;13.03;;;8.80;;
59728;SDS011;45588;51.598;5.618;2023-07-16T08:31:13;15.87;;;8.63;;
59728;SDS011;45588;51.598;5.618;2023-07-16T08:33:38;19.70;;;9.03;;
59728;SDS011;45588;51.598;5.618;2023-07-16T08:36:03;17.88;;;8.63;;
59728;SDS011;45588;51.598;5.618;2023-07-16T08:38:29;14.32;;;8.15;;
59728;SDS011;45588;51.598;5.618;2023-07-16T08:40:54;16.43;;;9.10;;
59728;SDS011;45588;51.598;5.618;2023-07-16T08:43:19;12.50;;;8.50;;
59728;SDS011;45588;51.598;5.618;2023-07-16T08:45:45;17.58;;;8.13;;
59728;SDS011;45588;51.598;5.618;2023-07-16T08:48:11;14.55;;;8.77;;
59728;SDS011;45588;51.598;5.618;2023-07-16T08:50:37;18.30;;;8.10;;
59728;SDS011;45588;51.598;5.618;2023-07-16T08:53:05;15.35;;;8.57;;
59728;SDS011;45588;51.598;5.618;2023-07-16T08:55:30;13.38;;;7.97;;
59728;SDS011;45588;51.598;5.618;2023-07-16T08:57:57;16.67;;;8.90;;
59728;SDS011;45588;51.598;5.618;2023-07-16T09:00:22;13.10;;;7.68;;
59728;SDS011;45588;51.598;5.618;2023-07-16T09:02:51;11.80;;;7.40;;
59728;SDS011;45588;51.598;5.618;2023-07-16T09:05:16;12.65;;;6.95;;
59728;SDS011;45588;51.598;5.618;2023-07-16T09:07:44;13.02;;;7.28;;
59728;SDS011;45588;51.598;5.618;2023-07-16T09:10:11;10.53;;;7.33;;
59728;SDS011;45588;51.598;5.618;2023-07-16T09:12:36;16.05;;;8.13;;
59728;SDS011;45588;51.598;5.618;2023-07-16T09:15:06;11.18;;;7.80;;
59728;SDS011;45588;51.598;5.618;2023-07-16T09:17:31;14.23;;;8.02;;
59728;SDS011;45588;51.598;5.618;2023-07-16T09:19:57;17.20;;;7.80;;
59728;SDS011;45588;51.598;5.618;2023-07-16T09:22:22;13.97;;;7.10;;
59728;SDS011;45588;51.598;5.618;2023-07-16T09:24:47;10.90;;;7.65;;
59728;SDS011;45588;51.598;5.618;2023-07-16T09:27:13;12.15;;;6.32;;
59728;SDS011;45588;51.598;5.618;2023-07-16T09:29:38;12.45;;;8.00;;
59728;SDS011;45588;51.598;5.618;2023-07-16T09:32:03;10.45;;;6.75;;
59728;SDS011;45588;51.598;5.618;2023-07-16T09:34:30;12.70;;;7.35;;
59728;SDS011;45588;51.598;5.618;2023-07-16T09:36:58;12.18;;;6.80;;
59728;SDS011;45588;51.598;5.618;2023-07-16T09:39:24;15.73;;;6.82;;
59728;SDS011;45588;51.598;5.618;2023-07-16T09:41:50;12.88;;;7.38;;
59728;SDS011;45588;51.598;5.618;2023-07-16T09:44:15;12.93;;;7.07;;
59728;SDS011;45588;51.598;5.618;2023-07-16T09:46:41;12.00;;;7.63;;
59728;SDS011;45588;51.598;5.618;2023-07-16T09:49:06;12.18;;;7.32;;
59728;SDS011;45588;51.598;5.618;2023-07-16T09:51:32;11.45;;;7.13;;
59728;SDS011;45588;51.598;5.618;2023-07-16T09:54:02;10.02;;;6.13;;
59728;SDS011;45588;51.598;5.618;2023-07-16T09:56:30;13.20;;;6.57;;
59728;SDS011;45588;51.598;5.618;2023-07-16T09:58:57;9.98;;;6.07;;
59728;SDS011;45588;51.598;5.618;2023-07-16T10:01:23;11.15;;;6.40;;
59728;SDS011;45588;51.598;5.618;2023-07-16T10:03:49;11.43;;;6.80;;
59728;SDS011;45588;51.598;5.618;2023-07-16T10:06:15;9.75;;;6.18;;
59728;SDS011;45588;51.598;5.618;2023-07-16T10:08:40;12.50;;;6.90;;
59728;SDS011;45588;51.598;5.618;2023-07-16T10:11:15;10.33;;;6.83;;
59728;SDS011;45588;51.598;5.618;2023-07-16T10:13:40;9.93;;;6.43;;
59728;SDS011;45588;51.598;5.618;2023-07-16T10:16:05;12.17;;;6.87;;
59728;SDS011;45588;51.598;5.618;2023-07-16T10:18:31;9.45;;;6.53;;
59728;SDS011;45588;51.598;5.618;2023-07-16T10:21:03;10.15;;;6.43;;
59728;SDS011;45588;51.598;5.618;2023-07-16T10:23:36;12.85;;;6.90;;
59728;SDS011;45588;51.598;5.618;2023-07-16T10:26:02;13.20;;;6.97;;
59728;SDS011;45588;51.598;5.618;2023-07-16T10:28:34;11.18;;;6.25;;
59728;SDS011;45588;51.598;5.618;2023-07-16T10:30:59;10.05;;;6.32;;
59728;SDS011;45588;51.598;5.618;2023-07-16T10:33:25;11.27;;;7.18;;
59728;SDS011;45588;51.598;5.618;2023-07-16T10:35:50;10.73;;;6.97;;
59728;SDS011;45588;51.598;5.618;2023-07-16T10:38:15;13.43;;;7.53;;
59728;SDS011;45588;51.598;5.618;2023-07-16T10:40:41;12.32;;;7.25;;
59728;SDS011;45588;51.598;5.618;2023-07-16T10:43:06;14.73;;;8.15;;
59728;SDS011;45588;51.598;5.618;2023-07-16T10:45:32;15.65;;;7.95;;
59728;SDS011;45588;51.598;5.618;2023-07-16T10:47:57;15.43;;;7.50;;
59728;SDS011;45588;51.598;5.618;2023-07-16T10:50:22;14.07;;;6.67;;
59728;SDS011;45588;51.598;5.618;2023-07-16T10:52:54;10.77;;;6.43;;
59728;SDS011;45588;51.598;5.618;2023-07-16T10:55:20;12.63;;;7.32;;
59728;SDS011;45588;51.598;5.618;2023-07-16T10:57:48;11.27;;;7.05;;
59728;SDS011;45588;51.598;5.618;2023-07-16T11:00:17;12.68;;;7.32;;
59728;SDS011;45588;51.598;5.618;2023-07-16T11:02:43;11.88;;;6.60;;
59728;SDS011;45588;51.598;5.618;2023-07-16T11:05:11;10.85;;;6.70;;
59728;SDS011;45588;51.598;5.618;2023-07-16T11:07:37;11.00;;;6.65;;
59728;SDS011;45588;51.598;5.618;2023-07-16T11:10:02;10.85;;;6.75;;
59728;SDS011;45588;51.598;5.618;2023-07-16T11:12:28;11.20;;;6.97;;
59728;SDS011;45588;51.598;5.618;2023-07-16T11:14:54;12.18;;;6.85;;
59728;SDS011;45588;51.598;5.618;2023-07-16T11:17:19;12.52;;;6.55;;
59728;SDS011;45588;51.598;5.618;2023-07-16T11:19:46;12.63;;;6.13;;
59728;SDS011;45588;51.598;5.618;2023-07-16T11:22:11;13.13;;;6.78;;
59728;SDS011;45588;51.598;5.618;2023-07-16T11:24:55;11.77;;;6.95;;
59728;SDS011;45588;51.598;5.618;2023-07-16T11:27:20;17.35;;;7.45;;
59728;SDS011;45588;51.598;5.618;2023-07-16T11:29:50;14.27;;;7.32;;
59728;SDS011;45588;51.598;5.618;2023-07-16T11:34:57;13.65;;;6.88;;
59728;SDS011;45588;51.598;5.618;2023-07-16T11:37:24;13.07;;;7.30;;
59728;SDS011;45588;51.598;5.618;2023-07-16T11:39:49;11.98;;;7.20;;
59728;SDS011;45588;51.598;5.618;2023-07-16T11:42:14;11.73;;;7.05;;
59728;SDS011;45588;51.598;5.618;2023-07-16T11:44:42;13.23;;;7.82;;
59728;SDS011;45588;51.598;5.618;2023-07-16T11:47:07;11.77;;;6.60;;
59728;SDS011;45588;51.598;5.618;2023-07-16T11:49:33;15.98;;;7.80;;
59728;SDS011;45588;51.598;5.618;2023-07-16T11:51:58;11.97;;;6.57;;
59728;SDS011;45588;51.598;5.618;2023-07-16T11:54:24;11.43;;;7.07;;
59728;SDS011;45588;51.598;5.618;2023-07-16T11:56:49;12.93;;;6.93;;
59728;SDS011;45588;51.598;5.618;2023-07-16T11:59:15;10.10;;;6.77;;
59728;SDS011;45588;51.598;5.618;2023-07-16T12:01:41;14.77;;;7.63;;
59728;SDS011;45588;51.598;5.618;2023-07-16T12:04:06;10.53;;;7.07;;
59728;SDS011;45588;51.598;5.618;2023-07-16T12:06:31;13.63;;;7.60;;
59728;SDS011;45588;51.598;5.618;2023-07-16T12:08:57;16.47;;;7.73;;
59728;SDS011;45588;51.598;5.618;2023-07-16T12:11:22;13.67;;;6.80;;
59728;SDS011;45588;51.598;5.618;2023-07-16T12:13:47;12.07;;;7.13;;
59728;SDS011;45588;51.598;5.618;2023-07-16T12:16:13;14.20;;;7.95;;
59728;SDS011;45588;51.598;5.618;2023-07-16T12:18:38;14.85;;;7.70;;
59728;SDS011;45588;51.598;5.618;2023-07-16T12:21:03;14.63;;;7.07;;
59728;SDS011;45588;51.598;5.618;2023-07-16T12:23:28;14.33;;;8.20;;
59728;SDS011;45588;51.598;5.618;2023-07-16T12:25:53;11.03;;;7.63;;
59728;SDS011;45588;51.598;5.618;2023-07-16T12:28:19;13.57;;;8.87;;
59728;SDS011;45588;51.598;5.618;2023-07-16T12:30:44;11.20;;;8.00;;
59728;SDS011;45588;51.598;5.618;2023-07-16T12:33:09;15.83;;;9.03;;
59728;SDS011;45588;51.598;5.618;2023-07-16T12:35:34;19.02;;;7.72;;
59728;SDS011;45588;51.598;5.618;2023-07-16T12:37:59;13.20;;;7.97;;
59728;SDS011;45588;51.598;5.618;2023-07-16T12:40:25;11.52;;;7.75;;
59728;SDS011;45588;51.598;5.618;2023-07-16T12:42:51;11.32;;;8.13;;
59728;SDS011;45588;51.598;5.618;2023-07-16T12:45:16;14.10;;;8.07;;
59728;SDS011;45588;51.598;5.618;2023-07-16T12:47:41;17.43;;;8.33;;
59728;SDS011;45588;51.598;5.618;2023-07-16T12:50:07;13.13;;;7.78;;
59728;SDS011;45588;51.598;5.618;2023-07-16T12:52:32;13.43;;;7.82;;
59728;SDS011;45588;51.598;5.618;2023-07-16T12:54:57;12.60;;;8.50;;
59728;SDS011;45588;51.598;5.618;2023-07-16T12:57:22;18.75;;;8.63;;
59728;SDS011;45588;51.598;5.618;2023-07-16T12:59:48;18.13;;;9.97;;
59728;SDS011;45588;51.598;5.618;2023-07-16T13:02:13;15.57;;;8.57;;
59728;SDS011;45588;51.598;5.618;2023-07-16T13:04:38;11.07;;;8.07;;
59728;SDS011;45588;51.598;5.618;2023-07-16T13:07:03;12.73;;;8.35;;
59728;SDS011;45588;51.598;5.618;2023-07-16T13:09:28;12.82;;;8.07;;
59728;SDS011;45588;51.598;5.618;2023-07-16T13:11:54;13.50;;;7.67;;
59728;SDS011;45588;51.598;5.618;2023-07-16T13:14:19;20.10;;;8.33;;
59728;SDS011;45588;51.598;5.618;2023-07-16T13:16:44;17.33;;;7.80;;
59728;SDS011;45588;51.598;5.618;2023-07-16T13:19:09;13.77;;;8.10;;
59728;SDS011;45588;51.598;5.618;2023-07-16T13:21:34;11.77;;;7.20;;
59728;SDS011;45588;51.598;5.618;2023-07-16T13:24:00;12.40;;;7.40;;
59728;SDS011;45588;51.598;5.618;2023-07-16T13:26:25;10.80;;;6.40;;
59728;SDS011;45588;51.598;5.618;2023-07-16T13:28:50;9.10;;;6.43;;
59728;SDS011;45588;51.598;5.618;2023-07-16T13:31:15;10.48;;;5.70;;
59728;SDS011;45588;51.598;5.618;2023-07-16T13:33:40;7.73;;;5.10;;
59728;SDS011;45588;51.598;5.618;2023-07-16T13:36:06;11.63;;;5.50;;
59728;SDS011;45588;51.598;5.618;2023-07-16T13:38:31;9.23;;;5.50;;
59728;SDS011;45588;51.598;5.618;2023-07-16T13:40:56;13.02;;;5.88;;
59728;SDS011;45588;51.598;5.618;2023-07-16T13:43:21;10.80;;;5.87;;
59728;SDS011;45588;51.598;5.618;2023-07-16T13:45:46;8.37;;;5.47;;
59728;SDS011;45588;51.598;5.618;2023-07-16T13:48:12;7.93;;;4.90;;
59728;SDS011;45588;51.598;5.618;2023-07-16T13:50:37;10.80;;;6.07;;
59728;SDS011;45588;51.598;5.618;2023-07-16T13:53:02;9.40;;;5.30;;
59728;SDS011;45588;51.598;5.618;2023-07-16T13:55:28;7.45;;;5.10;;
59728;SDS011;45588;51.598;5.618;2023-07-16T13:57:53;9.57;;;4.67;;
59728;SDS011;45588;51.598;5.618;2023-07-16T14:00:20;9.25;;;5.22;;
59728;SDS011;45588;51.598;5.618;2023-07-16T14:02:45;10.32;;;5.47;;
59728;SDS011;45588;51.598;5.618;2023-07-16T14:05:11;7.07;;;5.17;;
59728;SDS011;45588;51.598;5.618;2023-07-16T14:07:36;9.37;;;5.07;;
59728;SDS011;45588;51.598;5.618;2023-07-16T14:10:01;8.20;;;5.50;;
59728;SDS011;45588;51.598;5.618;2023-07-16T14:12:26;9.38;;;5.45;;
59728;SDS011;45588;51.598;5.618;2023-07-16T14:14:51;17.17;;;5.07;;
59728;SDS011;45588;51.598;5.618;2023-07-16T14:17:17;8.27;;;5.65;;
59728;SDS011;45588;51.598;5.618;2023-07-16T14:19:42;8.03;;;5.47;;
59728;SDS011;45588;51.598;5.618;2023-07-16T14:22:07;9.77;;;5.17;;
59728;SDS011;45588;51.598;5.618;2023-07-16T14:24:36;10.60;;;5.53;;
59728;SDS011;45588;51.598;5.618;2023-07-16T14:27:01;10.47;;;6.10;;
59728;SDS011;45588;51.598;5.618;2023-07-16T14:29:27;9.27;;;6.15;;
59728;SDS011;45588;51.598;5.618;2023-07-16T14:31:54;9.65;;;4.97;;
59728;SDS011;45588;51.598;5.618;2023-07-16T14:34:19;10.67;;;5.43;;
59728;SDS011;45588;51.598;5.618;2023-07-16T14:36:44;7.70;;;4.73;;
59728;SDS011;45588;51.598;5.618;2023-07-16T14:39:09;8.87;;;5.47;;